54.4°F
Current conditions from King Hill
Updated every 5 minutes
 
  Thursday July 31, 2014

Station Historical Data
Daily Summary for April 21, 2012 Units:  Both    English   Metric
« Previous Day
Next Day »
Daily Weekly Monthly Yearly Custom
  High: Low: Average:
Temperature: 59.6 °F /  15.3 °C 35.9 °F /  2.2 °C 48 °F /  8.9 °C
Dew Point: 50.4 °F /  10.2 °C 34.1 °F /  1.2 °C 42.4 °F /  5.8 °C
Humidity: 93% 68% 82%
Wind Speed: 12.0mph /  19.3km/h - 4.3mph /  6.9km/h
Wind Gust: 25.0mph /  40.2km/h - -
Wind- - SSE
Pressure: 29.86 in /  1011.1 hPa 29.63 in /  1003.3 hPa -
Precipitation: 0.35 in /  8.9 mm    
Historical Graphs
 
 
Tabular Data for April 21, 2012
Time Temperature Dew Point Pressure Wind Wind Speed Wind Gust Humidity Daily Rainfall
00:04 56.5 °F /  13.6 °C 47.2 °F /  8.4 °C 29.68in /  1005hPa SW 5.0mph /  8km/h 17.0mph /  27.4km/h 71% 0.00in /  0mm
00:09 57.1 °F /  13.9 °C 47.8 °F /  8.8 °C 29.68in /  1005hPa SSW 9.0mph /  14.5km/h 17.0mph /  27.4km/h 71% 0.00in /  0mm
00:14 57.5 °F /  14.2 °C 47.8 °F /  8.8 °C 29.68in /  1005hPa SSW 6.0mph /  9.7km/h 17.0mph /  27.4km/h 70% 0.00in /  0mm
00:19 57.6 °F /  14.2 °C 47.9 °F /  8.8 °C 29.68in /  1005hPa SW 8.0mph /  12.9km/h 17.0mph /  27.4km/h 70% 0.00in /  0mm
00:24 57.6 °F /  14.2 °C 47.9 °F /  8.8 °C 29.68in /  1005hPa SW 4.0mph /  6.4km/h 16.0mph /  25.7km/h 70% 0.00in /  0mm
00:29 57.5 °F /  14.2 °C 47.8 °F /  8.8 °C 29.68in /  1005hPa SSW 5.0mph /  8km/h 14.0mph /  22.5km/h 70% 0.00in /  0mm
00:34 57.4 °F /  14.1 °C 47.7 °F /  8.7 °C 29.68in /  1005hPa SW 5.0mph /  8km/h 13.0mph /  20.9km/h 70% 0.00in /  0mm
00:44 57.0 °F /  13.9 °C 47.7 °F /  8.7 °C 29.68in /  1005hPa SW 4.0mph /  6.4km/h 10.0mph /  16.1km/h 71% 0.00in /  0mm
00:49 57.1 °F /  13.9 °C 48.2 °F /  9 °C 29.68in /  1005hPa SSW 8.0mph /  12.9km/h 19.0mph /  30.6km/h 72% 0.00in /  0mm
00:54 58.4 °F /  14.7 °C 49.0 °F /  9.4 °C 29.67in /  1004.6hPa SSW 12.0mph /  19.3km/h 20.0mph /  32.2km/h 71% 0.00in /  0mm
00:59 59.0 °F /  15 °C 49.2 °F /  9.6 °C 29.67in /  1004.6hPa SSW 9.0mph /  14.5km/h 20.0mph /  32.2km/h 70% 0.00in /  0mm
01:04 59.3 °F /  15.2 °C 49.1 °F /  9.5 °C 29.67in /  1004.6hPa SSW 6.0mph /  9.7km/h 25.0mph /  40.2km/h 69% 0.00in /  0mm
01:09 59.5 °F /  15.3 °C 49.3 °F /  9.6 °C 29.67in /  1004.6hPa SSW 10.0mph /  16.1km/h 25.0mph /  40.2km/h 69% 0.00in /  0mm
01:14 59.4 °F /  15.2 °C 49.2 °F /  9.6 °C 29.67in /  1004.6hPa SSW 7.0mph /  11.3km/h 24.0mph /  38.6km/h 69% 0.00in /  0mm
01:19 59.6 °F /  15.3 °C 49.4 °F /  9.7 °C 29.67in /  1004.6hPa SSW 10.0mph /  16.1km/h 19.0mph /  30.6km/h 69% 0.00in /  0mm
01:24 59.5 °F /  15.3 °C 49.3 °F /  9.6 °C 29.67in /  1004.6hPa South 7.0mph /  11.3km/h 19.0mph /  30.6km/h 69% 0.00in /  0mm
01:29 59.4 °F /  15.2 °C 49.2 °F /  9.6 °C 29.67in /  1004.6hPa SW 5.0mph /  8km/h 16.0mph /  25.7km/h 69% 0.00in /  0mm
01:34 59.5 °F /  15.3 °C 49.3 °F /  9.6 °C 29.67in /  1004.6hPa SSW 12.0mph /  19.3km/h 17.0mph /  27.4km/h 69% 0.00in /  0mm
01:39 59.5 °F /  15.3 °C 49.3 °F /  9.6 °C 29.67in /  1004.6hPa SSW 9.0mph /  14.5km/h 20.0mph /  32.2km/h 69% 0.00in /  0mm
01:44 59.3 °F /  15.2 °C 49.1 °F /  9.5 °C 29.67in /  1004.6hPa SSW 6.0mph /  9.7km/h 20.0mph /  32.2km/h 69% 0.00in /  0mm
01:49 59.2 °F /  15.1 °C 49.0 °F /  9.4 °C 29.66in /  1004.3hPa SSW 6.0mph /  9.7km/h 18.0mph /  29km/h 69% 0.00in /  0mm
01:54 59.3 °F /  15.2 °C 49.1 °F /  9.5 °C 29.66in /  1004.3hPa SSW 8.0mph /  12.9km/h 18.0mph /  29km/h 69% 0.00in /  0mm
01:59 59.0 °F /  15 °C 48.9 °F /  9.4 °C 29.66in /  1004.3hPa SSW 6.0mph /  9.7km/h 18.0mph /  29km/h 69% 0.00in /  0mm
02:04 59.0 °F /  15 °C 48.9 °F /  9.4 °C 29.66in /  1004.3hPa SSW 10.0mph /  16.1km/h 19.0mph /  30.6km/h 69% 0.00in /  0mm
02:09 59.0 °F /  15 °C 48.5 °F /  9.2 °C 29.66in /  1004.3hPa SSW 10.0mph /  16.1km/h 21.0mph /  33.8km/h 68% 0.00in /  0mm
02:14 59.0 °F /  15 °C 48.5 °F /  9.2 °C 29.66in /  1004.3hPa SSW 9.0mph /  14.5km/h 21.0mph /  33.8km/h 68% 0.00in /  0mm
02:19 59.0 °F /  15 °C 48.5 °F /  9.2 °C 29.66in /  1004.3hPa SSW 9.0mph /  14.5km/h 24.0mph /  38.6km/h 68% 0.00in /  0mm
02:24 59.0 °F /  15 °C 48.5 °F /  9.2 °C 29.66in /  1004.3hPa SSW 11.0mph /  17.7km/h 24.0mph /  38.6km/h 68% 0.00in /  0mm
02:29 58.8 °F /  14.9 °C 48.3 °F /  9.1 °C 29.66in /  1004.3hPa SSW 7.0mph /  11.3km/h 23.0mph /  37km/h 68% 0.00in /  0mm
02:34 58.6 °F /  14.8 °C 48.5 °F /  9.2 °C 29.66in /  1004.3hPa SSW 8.0mph /  12.9km/h 20.0mph /  32.2km/h 69% 0.00in /  0mm
02:39 58.4 °F /  14.7 °C 48.3 °F /  9.1 °C 29.66in /  1004.3hPa SW 10.0mph /  16.1km/h 18.0mph /  29km/h 69% 0.00in /  0mm
02:44 58.2 °F /  14.6 °C 48.1 °F /  8.9 °C 29.66in /  1004.3hPa SSW 7.0mph /  11.3km/h 18.0mph /  29km/h 69% 0.00in /  0mm
02:49 58.2 °F /  14.6 °C 48.1 °F /  8.9 °C 29.66in /  1004.3hPa SSW 9.0mph /  14.5km/h 20.0mph /  32.2km/h 69% 0.00in /  0mm
02:54 58.2 °F /  14.6 °C 47.7 °F /  8.7 °C 29.65in /  1003.9hPa SW 7.0mph /  11.3km/h 20.0mph /  32.2km/h 68% 0.00in /  0mm
02:59 58.0 °F /  14.4 °C 47.9 °F /  8.8 °C 29.65in /  1003.9hPa SSW 9.0mph /  14.5km/h 20.0mph /  32.2km/h 69% 0.00in /  0mm
03:04 57.8 °F /  14.3 °C 47.7 °F /  8.7 °C 29.65in /  1003.9hPa SSW 8.0mph /  12.9km/h 18.0mph /  29km/h 69% 0.00in /  0mm
03:09 57.8 °F /  14.3 °C 47.3 °F /  8.5 °C 29.65in /  1003.9hPa SSW 8.0mph /  12.9km/h 19.0mph /  30.6km/h 68% 0.00in /  0mm
03:14 57.7 °F /  14.3 °C 47.6 °F /  8.7 °C 29.65in /  1003.9hPa SSW 9.0mph /  14.5km/h 19.0mph /  30.6km/h 69% 0.00in /  0mm
03:19 57.7 °F /  14.3 °C 47.2 °F /  8.4 °C 29.65in /  1003.9hPa SSW 8.0mph /  12.9km/h 19.0mph /  30.6km/h 68% 0.00in /  0mm
03:24 57.6 °F /  14.2 °C 47.5 °F /  8.6 °C 29.65in /  1003.9hPa SSW 9.0mph /  14.5km/h 20.0mph /  32.2km/h 69% 0.00in /  0mm
03:29 57.6 °F /  14.2 °C 47.1 °F /  8.4 °C 29.64in /  1003.6hPa SSW 8.0mph /  12.9km/h 20.0mph /  32.2km/h 68% 0.00in /  0mm
03:34 57.6 °F /  14.2 °C 47.1 °F /  8.4 °C 29.64in /  1003.6hPa SSW 11.0mph /  17.7km/h 19.0mph /  30.6km/h 68% 0.00in /  0mm
03:39 57.5 °F /  14.2 °C 47.0 °F /  8.3 °C 29.64in /  1003.6hPa SSW 10.0mph /  16.1km/h 21.0mph /  33.8km/h 68% 0.00in /  0mm
03:44 57.5 °F /  14.2 °C 47.0 °F /  8.3 °C 29.64in /  1003.6hPa SSW 12.0mph /  19.3km/h 22.0mph /  35.4km/h 68% 0.00in /  0mm
03:49 57.6 °F /  14.2 °C 47.1 °F /  8.4 °C 29.63in /  1003.3hPa SSW 9.0mph /  14.5km/h 24.0mph /  38.6km/h 68% 0.00in /  0mm
03:54 57.5 °F /  14.2 °C 47.4 °F /  8.6 °C 29.64in /  1003.6hPa SSW 11.0mph /  17.7km/h 24.0mph /  38.6km/h 69% 0.00in /  0mm
03:59 57.4 °F /  14.1 °C 47.3 °F /  8.5 °C 29.64in /  1003.6hPa SSW 9.0mph /  14.5km/h 22.0mph /  35.4km/h 69% 0.00in /  0mm
04:04 57.3 °F /  14.1 °C 47.2 °F /  8.4 °C 29.64in /  1003.6hPa SSW 11.0mph /  17.7km/h 23.0mph /  37km/h 69% 0.00in /  0mm
04:09 57.3 °F /  14.1 °C 47.2 °F /  8.4 °C 29.65in /  1003.9hPa SSW 7.0mph /  11.3km/h 23.0mph /  37km/h 69% 0.00in /  0mm
04:14 57.1 °F /  13.9 °C 47.4 °F /  8.6 °C 29.65in /  1003.9hPa SSW 7.0mph /  11.3km/h 18.0mph /  29km/h 70% 0.00in /  0mm
04:19 56.9 °F /  13.8 °C 47.2 °F /  8.4 °C 29.66in /  1004.3hPa SW 9.0mph /  14.5km/h 18.0mph /  29km/h 70% 0.00in /  0mm
04:24 56.9 °F /  13.8 °C 47.2 °F /  8.4 °C 29.65in /  1003.9hPa SSW 7.0mph /  11.3km/h 17.0mph /  27.4km/h 70% 0.00in /  0mm
04:29 56.8 °F /  13.8 °C 47.1 °F /  8.4 °C 29.65in /  1003.9hPa SSW 7.0mph /  11.3km/h 16.0mph /  25.7km/h 70% 0.00in /  0mm
04:34 56.7 °F /  13.7 °C 47.4 °F /  8.6 °C 29.64in /  1003.6hPa SSW 5.0mph /  8km/h 15.0mph /  24.1km/h 71% 0.00in /  0mm
04:39 56.8 °F /  13.8 °C 47.5 °F /  8.6 °C 29.64in /  1003.6hPa SSW 11.0mph /  17.7km/h 18.0mph /  29km/h 71% 0.00in /  0mm
04:44 56.7 °F /  13.7 °C 47.4 °F /  8.6 °C 29.64in /  1003.6hPa SSW 7.0mph /  11.3km/h 18.0mph /  29km/h 71% 0.00in /  0mm
04:50 56.6 °F /  13.7 °C 47.7 °F /  8.7 °C 29.64in /  1003.6hPa SSW 6.0mph /  9.7km/h 14.0mph /  22.5km/h 72% 0.00in /  0mm
05:00 56.4 °F /  13.6 °C 47.9 °F /  8.8 °C 29.65in /  1003.9hPa SSW 7.0mph /  11.3km/h 14.0mph /  22.5km/h 73% 0.00in /  0mm
05:09 56.2 °F /  13.4 °C 47.7 °F /  8.7 °C 29.65in /  1003.9hPa SSW 8.0mph /  12.9km/h 14.0mph /  22.5km/h 73% 0.00in /  0mm
05:14 56.2 °F /  13.4 °C 48.0 °F /  8.9 °C 29.65in /  1003.9hPa SSW 8.0mph /  12.9km/h 16.0mph /  25.7km/h 74% 0.00in /  0mm
05:19 56.1 °F /  13.4 °C 47.9 °F /  8.8 °C 29.65in /  1003.9hPa SSW 8.0mph /  12.9km/h 16.0mph /  25.7km/h 74% 0.00in /  0mm
05:24 56.2 °F /  13.4 °C 48.0 °F /  8.9 °C 29.65in /  1003.9hPa SW 7.0mph /  11.3km/h 15.0mph /  24.1km/h 74% 0.00in /  0mm
05:29 56.0 °F /  13.3 °C 47.8 °F /  8.8 °C 29.65in /  1003.9hPa SSW 7.0mph /  11.3km/h 14.0mph /  22.5km/h 74% 0.00in /  0mm
05:35 56.0 °F /  13.3 °C 48.2 °F /  9 °C 29.65in /  1003.9hPa SSW 7.0mph /  11.3km/h 17.0mph /  27.4km/h 75% 0.00in /  0mm
05:44 55.8 °F /  13.2 °C 48.0 °F /  8.9 °C 29.65in /  1003.9hPa SSW 6.0mph /  9.7km/h 15.0mph /  24.1km/h 75% 0.00in /  0mm
05:49 55.8 °F /  13.2 °C 48.4 °F /  9.1 °C 29.65in /  1003.9hPa SSW 5.0mph /  8km/h 14.0mph /  22.5km/h 76% 0.00in /  0mm
05:54 55.7 °F /  13.2 °C 48.3 °F /  9.1 °C 29.65in /  1003.9hPa SSW 6.0mph /  9.7km/h 14.0mph /  22.5km/h 76% 0.00in /  0mm
05:59 55.6 °F /  13.1 °C 48.2 °F /  9 °C 29.65in /  1003.9hPa SSW 7.0mph /  11.3km/h 14.0mph /  22.5km/h 76% 0.00in /  0mm
06:04 55.6 °F /  13.1 °C 48.5 °F /  9.2 °C 29.66in /  1004.3hPa SSW 5.0mph /  8km/h 13.0mph /  20.9km/h 77% 0.00in /  0mm
06:09 55.6 °F /  13.1 °C 48.5 °F /  9.2 °C 29.66in /  1004.3hPa SSW 6.0mph /  9.7km/h 14.0mph /  22.5km/h 77% 0.00in /  0mm
06:14 55.5 °F /  13.1 °C 48.4 °F /  9.1 °C 29.66in /  1004.3hPa SSW 7.0mph /  11.3km/h 14.0mph /  22.5km/h 77% 0.00in /  0mm
06:19 55.6 °F /  13.1 °C 48.5 °F /  9.2 °C 29.66in /  1004.3hPa SSW 8.0mph /  12.9km/h 15.0mph /  24.1km/h 77% 0.00in /  0mm
06:24 55.6 °F /  13.1 °C 48.5 °F /  9.2 °C 29.66in /  1004.3hPa SW 5.0mph /  8km/h 15.0mph /  24.1km/h 77% 0.00in /  0mm
06:30 55.4 °F /  13 °C 48.3 °F /  9.1 °C 29.66in /  1004.3hPa SW 2.0mph /  3.2km/h 12.0mph /  19.3km/h 77% 0.00in /  0mm
06:39 55.1 °F /  12.8 °C 48.4 °F /  9.1 °C 29.66in /  1004.3hPa SSW 4.0mph /  6.4km/h 10.0mph /  16.1km/h 78% 0.00in /  0mm
06:44 55.2 °F /  12.9 °C 48.5 °F /  9.2 °C 29.66in /  1004.3hPa SW 4.0mph /  6.4km/h 10.0mph /  16.1km/h 78% 0.00in /  0mm
06:49 55.1 °F /  12.8 °C 48.4 °F /  9.1 °C 29.66in /  1004.3hPa SW 5.0mph /  8km/h 10.0mph /  16.1km/h 78% 0.00in /  0mm
06:54 55.1 °F /  12.8 °C 48.7 °F /  9.3 °C 29.66in /  1004.3hPa SSW 5.0mph /  8km/h 8.0mph /  12.9km/h 79% 0.00in /  0mm
06:59 55.3 °F /  12.9 °C 48.9 °F /  9.4 °C 29.66in /  1004.3hPa SW 6.0mph /  9.7km/h 10.0mph /  16.1km/h 79% 0.00in /  0mm
07:04 55.6 °F /  13.1 °C 49.2 °F /  9.6 °C 29.66in /  1004.3hPa SSW 5.0mph /  8km/h 11.0mph /  17.7km/h 79% 0.00in /  0mm
07:09 55.9 °F /  13.3 °C 49.1 °F /  9.5 °C 29.66in /  1004.3hPa SW 7.0mph /  11.3km/h 13.0mph /  20.9km/h 78% 0.00in /  0mm
07:14 56.1 °F /  13.4 °C 49.3 °F /  9.6 °C 29.66in /  1004.3hPa SW 7.0mph /  11.3km/h 13.0mph /  20.9km/h 78% 0.00in /  0mm
07:19 56.6 °F /  13.7 °C 49.8 °F /  9.9 °C 29.66in /  1004.3hPa SW 8.0mph /  12.9km/h 14.0mph /  22.5km/h 78% 0.00in /  0mm
07:24 57.1 °F /  13.9 °C 50.0 °F /  10 °C 29.66in /  1004.3hPa SW 5.0mph /  8km/h 14.0mph /  22.5km/h 77% 0.00in /  0mm
07:29 57.4 °F /  14.1 °C 49.9 °F /  9.9 °C 29.67in /  1004.6hPa SW 7.0mph /  11.3km/h 14.0mph /  22.5km/h 76% 0.00in /  0mm
07:34 57.5 °F /  14.2 °C 50.0 °F /  10 °C 29.67in /  1004.6hPa SW 7.0mph /  11.3km/h 14.0mph /  22.5km/h 76% 0.00in /  0mm
07:39 57.7 °F /  14.3 °C 50.2 °F /  10.1 °C 29.67in /  1004.6hPa SSW 5.0mph /  8km/h 13.0mph /  20.9km/h 76% 0.00in /  0mm
07:45 57.9 °F /  14.4 °C 50.4 °F /  10.2 °C 29.67in /  1004.6hPa SW 4.0mph /  6.4km/h 13.0mph /  20.9km/h 76% 0.00in /  0mm
07:54 57.8 °F /  14.3 °C 49.9 °F /  9.9 °C 29.67in /  1004.6hPa SW 6.0mph /  9.7km/h 13.0mph /  20.9km/h 75% 0.00in /  0mm
07:59 57.6 °F /  14.2 °C 49.7 °F /  9.8 °C 29.67in /  1004.6hPa SSW 6.0mph /  9.7km/h 13.0mph /  20.9km/h 75% 0.00in /  0mm
08:04 57.5 °F /  14.2 °C 49.6 °F /  9.8 °C 29.67in /  1004.6hPa SW 3.0mph /  4.8km/h 11.0mph /  17.7km/h 75% 0.00in /  0mm
08:09 57.5 °F /  14.2 °C 49.6 °F /  9.8 °C 29.67in /  1004.6hPa SW 5.0mph /  8km/h 10.0mph /  16.1km/h 75% 0.00in /  0mm
08:14 57.3 °F /  14.1 °C 49.5 °F /  9.7 °C 29.67in /  1004.6hPa SW 7.0mph /  11.3km/h 11.0mph /  17.7km/h 75% 0.00in /  0mm
08:19 57.2 °F /  14 °C 49.4 °F /  9.7 °C 29.67in /  1004.6hPa SW 3.0mph /  4.8km/h 12.0mph /  19.3km/h 75% 0.00in /  0mm
08:24 57.3 °F /  14.1 °C 49.5 °F /  9.7 °C 29.67in /  1004.6hPa SW 5.0mph /  8km/h 12.0mph /  19.3km/h 75% 0.00in /  0mm
08:34 57.4 °F /  14.1 °C 49.2 °F /  9.6 °C 29.67in /  1004.6hPa SW 2.0mph /  3.2km/h 9.0mph /  14.5km/h 74% 0.00in /  0mm
08:44 56.7 °F /  13.7 °C 47.8 °F /  8.8 °C 29.67in /  1004.6hPa WNW 5.0mph /  8km/h 7.0mph /  11.3km/h 72% 0.00in /  0mm
08:49 56.0 °F /  13.3 °C 46.7 °F /  8.2 °C 29.67in /  1004.6hPa Calm   8.0mph /  12.9km/h 71% 0.00in /  0mm
08:54 55.4 °F /  13 °C 45.4 °F /  7.4 °C 29.67in /  1004.6hPa West 1.0mph /  1.6km/h 8.0mph /  12.9km/h 69% 0.00in /  0mm
08:59 54.1 °F /  12.3 °C 44.5 °F /  6.9 °C 29.67in /  1004.6hPa Calm   4.0mph /  6.4km/h 70% 0.00in /  0mm
09:04 53.4 °F /  11.9 °C 44.6 °F /  7 °C 29.67in /  1004.6hPa Calm   4.0mph /  6.4km/h 72% 0.00in /  0mm
09:09 53.1 °F /  11.7 °C 44.7 °F /  7.1 °C 29.67in /  1004.6hPa Calm   1.0mph /  1.6km/h 73% 0.00in /  0mm
09:19 51.6 °F /  10.9 °C 43.2 °F /  6.2 °C 29.68in /  1005hPa NW 5.0mph /  8km/h 8.0mph /  12.9km/h 73% 0.00in /  0mm
09:24 49.9 °F /  9.9 °C 42.3 °F /  5.7 °C 29.68in /  1005hPa NW 4.0mph /  6.4km/h 11.0mph /  17.7km/h 75% 0.00in /  0mm
09:34 48.1 °F /  8.9 °C 41.9 °F /  5.5 °C 29.68in /  1005hPa Calm   7.0mph /  11.3km/h 79% 0.00in /  0mm
09:40 48.0 °F /  8.9 °C 42.1 °F /  5.6 °C 29.68in /  1005hPa WNW 2.0mph /  3.2km/h 7.0mph /  11.3km/h 80% 0.00in /  0mm
09:49 48.5 °F /  9.2 °C 42.9 °F /  6.1 °C 29.69in /  1005.3hPa NW 2.0mph /  3.2km/h 5.0mph /  8km/h 81% 0.00in /  0mm
09:54 48.7 °F /  9.3 °C 42.8 °F /  6 °C 29.69in /  1005.3hPa Calm   5.0mph /  8km/h 80% 0.00in /  0mm
09:59 48.6 °F /  9.2 °C 42.4 °F /  5.8 °C 29.69in /  1005.3hPa NW 1.0mph /  1.6km/h 4.0mph /  6.4km/h 79% 0.00in /  0mm
10:04 48.7 °F /  9.3 °C 42.5 °F /  5.8 °C 29.69in /  1005.3hPa NW 3.0mph /  4.8km/h 6.0mph /  9.7km/h 79% 0.00in /  0mm
10:09 48.8 °F /  9.3 °C 42.6 °F /  5.9 °C 29.69in /  1005.3hPa NW 1.0mph /  1.6km/h 6.0mph /  9.7km/h 79% 0.00in /  0mm
10:14 49.0 °F /  9.4 °C 42.8 °F /  6 °C 29.69in /  1005.3hPa NW 1.0mph /  1.6km/h 5.0mph /  8km/h 79% 0.00in /  0mm
10:19 49.2 °F /  9.6 °C 43.0 °F /  6.1 °C 29.69in /  1005.3hPa Calm   5.0mph /  8km/h 79% 0.00in /  0mm
10:24 49.8 °F /  9.9 °C 43.6 °F /  6.4 °C 29.69in /  1005.3hPa Calm   7.0mph /  11.3km/h 79% 0.00in /  0mm
10:29 50.0 °F /  10 °C 43.1 °F /  6.2 °C 29.69in /  1005.3hPa NW 3.0mph /  4.8km/h 7.0mph /  11.3km/h 77% 0.00in /  0mm
10:34 49.7 °F /  9.8 °C 42.8 °F /  6 °C 29.69in /  1005.3hPa WNW 1.0mph /  1.6km/h 6.0mph /  9.7km/h 77% 0.00in /  0mm
10:44 49.6 °F /  9.8 °C 42.7 °F /  5.9 °C 29.69in /  1005.3hPa NW 1.0mph /  1.6km/h 6.0mph /  9.7km/h 77% 0.00in /  0mm
10:49 49.6 °F /  9.8 °C 42.7 °F /  5.9 °C 29.70in /  1005.6hPa NW 1.0mph /  1.6km/h 5.0mph /  8km/h 77% 0.00in /  0mm
10:54 49.8 °F /  9.9 °C 42.9 °F /  6.1 °C 29.69in /  1005.3hPa NE 1.0mph /  1.6km/h 5.0mph /  8km/h 77% 0.00in /  0mm
10:59 50.4 °F /  10.2 °C 43.8 °F /  6.6 °C 29.69in /  1005.3hPa NNE 2.0mph /  3.2km/h 7.0mph /  11.3km/h 78% 0.00in /  0mm
11:04 51.1 °F /  10.6 °C 43.8 °F /  6.6 °C 29.69in /  1005.3hPa NNW 1.0mph /  1.6km/h 7.0mph /  11.3km/h 76% 0.00in /  0mm
11:09 51.2 °F /  10.7 °C 43.2 °F /  6.2 °C 29.70in /  1005.6hPa NNE 1.0mph /  1.6km/h 7.0mph /  11.3km/h 74% 0.00in /  0mm
11:15 51.0 °F /  10.6 °C 43.0 °F /  6.1 °C 29.70in /  1005.6hPa NNE 1.0mph /  1.6km/h 7.0mph /  11.3km/h 74% 0.00in /  0mm
11:25 50.1 °F /  10.1 °C 42.1 °F /  5.6 °C 29.70in /  1005.6hPa NW 1.0mph /  1.6km/h 7.0mph /  11.3km/h 74% 0.00in /  0mm
11:34 48.4 °F /  9.1 °C 41.5 °F /  5.3 °C 29.70in /  1005.6hPa NNW 2.0mph /  3.2km/h 9.0mph /  14.5km/h 77% 0.00in /  0mm
11:44 47.6 °F /  8.7 °C 41.1 °F /  5.1 °C 29.72in /  1006.3hPa NNW 1.0mph /  1.6km/h 8.0mph /  12.9km/h 78% 0.00in /  0mm
11:49 46.9 °F /  8.3 °C 40.4 °F /  4.7 °C 29.71in /  1006hPa NNW 2.0mph /  3.2km/h 8.0mph /  12.9km/h 78% 0.00in /  0mm
11:54 46.3 °F /  7.9 °C 40.1 °F /  4.5 °C 29.71in /  1006hPa NW 2.0mph /  3.2km/h 7.0mph /  11.3km/h 79% 0.00in /  0mm
11:59 45.8 °F /  7.7 °C 40.0 °F /  4.4 °C 29.72in /  1006.3hPa NW 3.0mph /  4.8km/h 8.0mph /  12.9km/h 80% 0.00in /  0mm
12:04 45.5 °F /  7.5 °C 40.0 °F /  4.4 °C 29.72in /  1006.3hPa Calm   8.0mph /  12.9km/h 81% 0.00in /  0mm
12:09 45.0 °F /  7.2 °C 39.8 °F /  4.3 °C 29.72in /  1006.3hPa NNW 1.0mph /  1.6km/h 7.0mph /  11.3km/h 82% 0.00in /  0mm
12:14 44.7 °F /  7.1 °C 39.5 °F /  4.2 °C 29.72in /  1006.3hPa North 1.0mph /  1.6km/h 8.0mph /  12.9km/h 82% 0.00in /  0mm
12:19 44.2 °F /  6.8 °C 39.4 °F /  4.1 °C 29.72in /  1006.3hPa NNE 1.0mph /  1.6km/h 9.0mph /  14.5km/h 83% 0.00in /  0mm
12:24 44.1 °F /  6.7 °C 39.6 °F /  4.2 °C 29.72in /  1006.3hPa North 1.0mph /  1.6km/h 9.0mph /  14.5km/h 84% 0.00in /  0mm
12:30 44.0 °F /  6.7 °C 39.5 °F /  4.2 °C 29.72in /  1006.3hPa NNE 1.0mph /  1.6km/h 10.0mph /  16.1km/h 84% 0.00in /  0mm
12:39 43.8 °F /  6.6 °C 39.3 °F /  4.1 °C 29.72in /  1006.3hPa North 1.0mph /  1.6km/h 6.0mph /  9.7km/h 84% 0.00in /  0mm
12:44 43.8 °F /  6.6 °C 39.6 °F /  4.2 °C 29.73in /  1006.7hPa NNW 2.0mph /  3.2km/h 6.0mph /  9.7km/h 85% 0.00in /  0mm
12:54 43.5 °F /  6.4 °C 39.3 °F /  4.1 °C 29.73in /  1006.7hPa North 2.0mph /  3.2km/h 7.0mph /  11.3km/h 85% 0.00in /  0mm
13:00 43.4 °F /  6.3 °C 39.2 °F /  4 °C 29.73in /  1006.7hPa North 1.0mph /  1.6km/h 7.0mph /  11.3km/h 85% 0.00in /  0mm
13:10 43.4 °F /  6.3 °C 39.5 °F /  4.2 °C 29.74in /  1007hPa Calm   5.0mph /  8km/h 86% 0.00in /  0mm
13:19 43.2 °F /  6.2 °C 39.3 °F /  4.1 °C 29.74in /  1007hPa Calm   8.0mph /  12.9km/h 86% 0.00in /  0mm
13:24 43.2 °F /  6.2 °C 39.3 °F /  4.1 °C 29.74in /  1007hPa Calm   8.0mph /  12.9km/h 86% 0.00in /  0mm
13:29 43.2 °F /  6.2 °C 39.3 °F /  4.1 °C 29.75in /  1007.3hPa NNE 1.0mph /  1.6km/h 6.0mph /  9.7km/h 86% 0.00in /  0mm
13:35 43.1 °F /  6.2 °C 39.2 °F /  4 °C 29.75in /  1007.3hPa Calm   6.0mph /  9.7km/h 86% 0.00in /  0mm
13:44 43.1 °F /  6.2 °C 39.5 °F /  4.2 °C 29.75in /  1007.3hPa NW 2.0mph /  3.2km/h 8.0mph /  12.9km/h 87% 0.01in /  0.3mm
13:49 42.9 °F /  6.1 °C 39.3 °F /  4.1 °C 29.75in /  1007.3hPa NW 1.0mph /  1.6km/h 8.0mph /  12.9km/h 87% 0.02in /  0.5mm
13:54 42.9 °F /  6.1 °C 39.6 °F /  4.2 °C 29.75in /  1007.3hPa Calm   5.0mph /  8km/h 88% 0.02in /  0.5mm
14:00 42.9 °F /  6.1 °C 39.6 °F /  4.2 °C 29.75in /  1007.3hPa NNE 2.0mph /  3.2km/h 6.0mph /  9.7km/h 88% 0.03in /  0.8mm
14:09 42.7 °F /  5.9 °C 39.4 °F /  4.1 °C 29.75in /  1007.3hPa Calm   6.0mph /  9.7km/h 88% 0.04in /  1mm
14:14 42.6 °F /  5.9 °C 39.3 °F /  4.1 °C 29.75in /  1007.3hPa Calm   4.0mph /  6.4km/h 88% 0.04in /  1mm
14:19 42.6 °F /  5.9 °C 39.6 °F /  4.2 °C 29.75in /  1007.3hPa NNE 1.0mph /  1.6km/h 6.0mph /  9.7km/h 89% 0.05in /  1.3mm
14:24 42.5 °F /  5.8 °C 39.5 °F /  4.2 °C 29.75in /  1007.3hPa Calm   6.0mph /  9.7km/h 89% 0.06in /  1.5mm
14:29 42.5 °F /  5.8 °C 39.5 °F /  4.2 °C 29.76in /  1007.7hPa NNE 1.0mph /  1.6km/h 5.0mph /  8km/h 89% 0.06in /  1.5mm
14:34 42.4 °F /  5.8 °C 39.4 °F /  4.1 °C 29.76in /  1007.7hPa Calm   4.0mph /  6.4km/h 89% 0.06in /  1.5mm
14:39 42.2 °F /  5.7 °C 39.2 °F /  4 °C 29.76in /  1007.7hPa NNE 2.0mph /  3.2km/h 7.0mph /  11.3km/h 89% 0.06in /  1.5mm
14:44 42.0 °F /  5.6 °C 39.0 °F /  3.9 °C 29.76in /  1007.7hPa NNE 1.0mph /  1.6km/h 7.0mph /  11.3km/h 89% 0.06in /  1.5mm
14:54 42.1 °F /  5.6 °C 39.4 °F /  4.1 °C 29.76in /  1007.7hPa Calm   4.0mph /  6.4km/h 90% 0.06in /  1.5mm
15:00 42.2 °F /  5.7 °C 39.5 °F /  4.2 °C 29.76in /  1007.7hPa NW 1.0mph /  1.6km/h 3.0mph /  4.8km/h 90% 0.06in /  1.5mm
15:09 42.2 °F /  5.7 °C 39.5 °F /  4.2 °C 29.76in /  1007.7hPa Calm   6.0mph /  9.7km/h 90% 0.07in /  1.8mm
15:14 42.2 °F /  5.7 °C 39.5 °F /  4.2 °C 29.76in /  1007.7hPa NW 1.0mph /  1.6km/h 6.0mph /  9.7km/h 90% 0.08in /  2mm
15:19 42.3 °F /  5.7 °C 39.6 °F /  4.2 °C 29.76in /  1007.7hPa Calm   4.0mph /  6.4km/h 90% 0.08in /  2mm
15:24 42.2 °F /  5.7 °C 39.5 °F /  4.2 °C 29.76in /  1007.7hPa Calm   4.0mph /  6.4km/h 90% 0.08in /  2mm
15:29 42.1 °F /  5.6 °C 39.4 °F /  4.1 °C 29.76in /  1007.7hPa Calm   7.0mph /  11.3km/h 90% 0.09in /  2.3mm
15:35 41.9 °F /  5.5 °C 39.2 °F /  4 °C 29.76in /  1007.7hPa North 1.0mph /  1.6km/h 9.0mph /  14.5km/h 90% 0.09in /  2.3mm
15:44 41.9 °F /  5.5 °C 39.2 °F /  4 °C 29.76in /  1007.7hPa Calm   8.0mph /  12.9km/h 90% 0.10in /  2.5mm
15:54 41.5 °F /  5.3 °C 38.8 °F /  3.8 °C 29.77in /  1008hPa Calm   10.0mph /  16.1km/h 90% 0.10in /  2.5mm
15:59 41.5 °F /  5.3 °C 38.8 °F /  3.8 °C 29.76in /  1007.7hPa NNE 1.0mph /  1.6km/h 4.0mph /  6.4km/h 90% 0.10in /  2.5mm
16:04 41.6 °F /  5.3 °C 38.9 °F /  3.8 °C 29.77in /  1008hPa NNE 2.0mph /  3.2km/h 9.0mph /  14.5km/h 90% 0.12in /  3mm
16:14 41.3 °F /  5.2 °C 38.6 °F /  3.7 °C 29.77in /  1008hPa North 2.0mph /  3.2km/h 8.0mph /  12.9km/h 90% 0.12in /  3mm
16:19 41.2 °F /  5.1 °C 38.8 °F /  3.8 °C 29.78in /  1008.4hPa North 2.0mph /  3.2km/h 9.0mph /  14.5km/h 91% 0.12in /  3mm
16:24 41.1 °F /  5.1 °C 38.4 °F /  3.6 °C 29.78in /  1008.4hPa North 1.0mph /  1.6km/h 9.0mph /  14.5km/h 90% 0.13in /  3.3mm
16:29 41.1 °F /  5.1 °C 38.4 °F /  3.6 °C 29.78in /  1008.4hPa NNE 1.0mph /  1.6km/h 7.0mph /  11.3km/h 90% 0.14in /  3.6mm
16:34 41.1 °F /  5.1 °C 38.4 °F /  3.6 °C 29.77in /  1008hPa Calm   5.0mph /  8km/h 90% 0.14in /  3.6mm
16:39 41.2 °F /  5.1 °C 38.8 °F /  3.8 °C 29.76in /  1007.7hPa NNE 2.0mph /  3.2km/h 7.0mph /  11.3km/h 91% 0.16in /  4.1mm
16:45 41.2 °F /  5.1 °C 38.8 °F /  3.8 °C 29.77in /  1008hPa North 2.0mph /  3.2km/h 7.0mph /  11.3km/h 91% 0.16in /  4.1mm
16:54 41.1 °F /  5.1 °C 38.7 °F /  3.7 °C 29.78in /  1008.4hPa ENE 1.0mph /  1.6km/h 8.0mph /  12.9km/h 91% 0.16in /  4.1mm
16:59 41.1 °F /  5.1 °C 38.7 °F /  3.7 °C 29.77in /  1008hPa NNE 1.0mph /  1.6km/h 9.0mph /  14.5km/h 91% 0.16in /  4.1mm
17:04 41.0 °F /  5 °C 38.6 °F /  3.7 °C 29.77in /  1008hPa NNE 5.0mph /  8km/h 9.0mph /  14.5km/h 91% 0.16in /  4.1mm
17:09 40.8 °F /  4.9 °C 38.4 °F /  3.6 °C 29.77in /  1008hPa NE 1.0mph /  1.6km/h 13.0mph /  20.9km/h 91% 0.16in /  4.1mm
17:14 40.7 °F /  4.8 °C 38.3 °F /  3.5 °C 29.78in /  1008.4hPa NNE 2.0mph /  3.2km/h 13.0mph /  20.9km/h 91% 0.16in /  4.1mm
17:19 40.7 °F /  4.8 °C 38.3 °F /  3.5 °C 29.78in /  1008.4hPa NNE 3.0mph /  4.8km/h 9.0mph /  14.5km/h 91% 0.16in /  4.1mm
17:24 40.6 °F /  4.8 °C 38.2 °F /  3.4 °C 29.78in /  1008.4hPa North 2.0mph /  3.2km/h 11.0mph /  17.7km/h 91% 0.16in /  4.1mm
17:29 40.5 °F /  4.7 °C 38.1 °F /  3.4 °C 29.78in /  1008.4hPa NNE 1.0mph /  1.6km/h 11.0mph /  17.7km/h 91% 0.16in /  4.1mm
17:34 40.5 °F /  4.7 °C 38.1 °F /  3.4 °C 29.78in /  1008.4hPa NNE 3.0mph /  4.8km/h 8.0mph /  12.9km/h 91% 0.16in /  4.1mm
17:39 40.5 °F /  4.7 °C 38.1 °F /  3.4 °C 29.78in /  1008.4hPa North 2.0mph /  3.2km/h 11.0mph /  17.7km/h 91% 0.16in /  4.1mm
17:44 40.4 °F /  4.7 °C 38.0 °F /  3.3 °C 29.78in /  1008.4hPa NE 2.0mph /  3.2km/h 11.0mph /  17.7km/h 91% 0.16in /  4.1mm
17:49 40.3 °F /  4.6 °C 37.9 °F /  3.3 °C 29.78in /  1008.4hPa North 2.0mph /  3.2km/h 10.0mph /  16.1km/h 91% 0.16in /  4.1mm
17:54 40.2 °F /  4.6 °C 37.8 °F /  3.2 °C 29.79in /  1008.7hPa North 2.0mph /  3.2km/h 10.0mph /  16.1km/h 91% 0.16in /  4.1mm
17:59 40.2 °F /  4.6 °C 37.8 °F /  3.2 °C 29.78in /  1008.4hPa North 3.0mph /  4.8km/h 8.0mph /  12.9km/h 91% 0.16in /  4.1mm
18:04 40.1 °F /  4.5 °C 37.7 °F /  3.2 °C 29.79in /  1008.7hPa NNE 5.0mph /  8km/h 11.0mph /  17.7km/h 91% 0.17in /  4.3mm
18:09 40.0 °F /  4.4 °C 37.6 °F /  3.1 °C 29.79in /  1008.7hPa North 2.0mph /  3.2km/h 11.0mph /  17.7km/h 91% 0.17in /  4.3mm
18:14 40.1 °F /  4.5 °C 37.7 °F /  3.2 °C 29.79in /  1008.7hPa NNE 1.0mph /  1.6km/h 8.0mph /  12.9km/h 91% 0.17in /  4.3mm
18:19 40.0 °F /  4.4 °C 37.6 °F /  3.1 °C 29.80in /  1009hPa Calm   7.0mph /  11.3km/h 91% 0.17in /  4.3mm
18:24 40.0 °F /  4.4 °C 37.6 °F /  3.1 °C 29.79in /  1008.7hPa North 4.0mph /  6.4km/h 9.0mph /  14.5km/h 91% 0.17in /  4.3mm
18:29 39.8 °F /  4.3 °C 37.4 °F /  3 °C 29.79in /  1008.7hPa NNE 1.0mph /  1.6km/h 9.0mph /  14.5km/h 91% 0.17in /  4.3mm
18:34 39.7 °F /  4.3 °C 37.3 °F /  2.9 °C 29.80in /  1009hPa NNE 2.0mph /  3.2km/h 9.0mph /  14.5km/h 91% 0.17in /  4.3mm
18:39 39.6 °F /  4.2 °C 37.2 °F /  2.9 °C 29.80in /  1009hPa North 1.0mph /  1.6km/h 9.0mph /  14.5km/h 91% 0.17in /  4.3mm
18:44 39.7 °F /  4.3 °C 37.3 °F /  2.9 °C 29.80in /  1009hPa NNE 1.0mph /  1.6km/h 6.0mph /  9.7km/h 91% 0.17in /  4.3mm
18:54 39.5 °F /  4.2 °C 37.1 °F /  2.8 °C 29.81in /  1009.4hPa Calm   7.0mph /  11.3km/h 91% 0.18in /  4.6mm
19:04 39.4 °F /  4.1 °C 37.3 °F /  2.9 °C 29.82in /  1009.7hPa Calm   6.0mph /  9.7km/h 92% 0.18in /  4.6mm
19:09 39.3 °F /  4.1 °C 37.2 °F /  2.9 °C 29.82in /  1009.7hPa NNE 3.0mph /  4.8km/h 8.0mph /  12.9km/h 92% 0.18in /  4.6mm
19:14 39.3 °F /  4.1 °C 37.2 °F /  2.9 °C 29.82in /  1009.7hPa NNW 2.0mph /  3.2km/h 8.0mph /  12.9km/h 92% 0.18in /  4.6mm
19:19 39.4 °F /  4.1 °C 37.3 °F /  2.9 °C 29.82in /  1009.7hPa North 1.0mph /  1.6km/h 6.0mph /  9.7km/h 92% 0.18in /  4.6mm
19:24 39.3 °F /  4.1 °C 37.2 °F /  2.9 °C 29.83in /  1010hPa Calm   6.0mph /  9.7km/h 92% 0.18in /  4.6mm
19:29 39.3 °F /  4.1 °C 37.2 °F /  2.9 °C 29.84in /  1010.4hPa Calm   5.0mph /  8km/h 92% 0.19in /  4.8mm
19:34 39.2 °F /  4 °C 37.1 °F /  2.8 °C 29.83in /  1010hPa North 2.0mph /  3.2km/h 6.0mph /  9.7km/h 92% 0.19in /  4.8mm
19:39 39.1 °F /  3.9 °C 37.0 °F /  2.8 °C 29.83in /  1010hPa NE 2.0mph /  3.2km/h 8.0mph /  12.9km/h 92% 0.20in /  5.1mm
19:44 39.0 °F /  3.9 °C 36.9 °F /  2.7 °C 29.83in /  1010hPa NNE 4.0mph /  6.4km/h 10.0mph /  16.1km/h 92% 0.20in /  5.1mm
19:49 38.9 °F /  3.8 °C 36.8 °F /  2.7 °C 29.82in /  1009.7hPa North 3.0mph /  4.8km/h 10.0mph /  16.1km/h 92% 0.21in /  5.3mm
19:54 38.9 °F /  3.8 °C 36.8 °F /  2.7 °C 29.82in /  1009.7hPa NNE 5.0mph /  8km/h 10.0mph /  16.1km/h 92% 0.21in /  5.3mm
19:59 38.8 °F /  3.8 °C 36.7 °F /  2.6 °C 29.82in /  1009.7hPa NNE 1.0mph /  1.6km/h 10.0mph /  16.1km/h 92% 0.21in /  5.3mm
20:04 38.8 °F /  3.8 °C 36.7 °F /  2.6 °C 29.83in /  1010hPa North 4.0mph /  6.4km/h 11.0mph /  17.7km/h 92% 0.22in /  5.6mm
20:09 38.7 °F /  3.7 °C 36.6 °F /  2.6 °C 29.83in /  1010hPa NNE 4.0mph /  6.4km/h 11.0mph /  17.7km/h 92% 0.22in /  5.6mm
20:14 38.7 °F /  3.7 °C 36.6 °F /  2.6 °C 29.83in /  1010hPa NNE 2.0mph /  3.2km/h 11.0mph /  17.7km/h 92% 0.22in /  5.6mm
20:19 38.5 °F /  3.6 °C 36.4 °F /  2.4 °C 29.83in /  1010hPa NNE 3.0mph /  4.8km/h 13.0mph /  20.9km/h 92% 0.22in /  5.6mm
20:24 38.4 °F /  3.6 °C 36.3 °F /  2.4 °C 29.84in /  1010.4hPa North 2.0mph /  3.2km/h 13.0mph /  20.9km/h 92% 0.22in /  5.6mm
20:29 38.3 °F /  3.5 °C 36.2 °F /  2.3 °C 29.85in /  1010.7hPa NNE 2.0mph /  3.2km/h 10.0mph /  16.1km/h 92% 0.22in /  5.6mm
20:34 38.3 °F /  3.5 °C 36.2 °F /  2.3 °C 29.85in /  1010.7hPa NNE 1.0mph /  1.6km/h 9.0mph /  14.5km/h 92% 0.22in /  5.6mm
20:39 38.3 °F /  3.5 °C 36.2 °F /  2.3 °C 29.85in /  1010.7hPa NNE 2.0mph /  3.2km/h 9.0mph /  14.5km/h 92% 0.23in /  5.8mm
20:44 38.0 °F /  3.3 °C 35.9 °F /  2.2 °C 29.85in /  1010.7hPa NNE 3.0mph /  4.8km/h 8.0mph /  12.9km/h 92% 0.24in /  6.1mm
20:49 37.9 °F /  3.3 °C 35.8 °F /  2.1 °C 29.85in /  1010.7hPa NE 2.0mph /  3.2km/h 10.0mph /  16.1km/h 92% 0.24in /  6.1mm
20:59 37.8 °F /  3.2 °C 35.7 °F /  2.1 °C 29.85in /  1010.7hPa North 1.0mph /  1.6km/h 11.0mph /  17.7km/h 92% 0.25in /  6.4mm
21:09 37.9 °F /  3.3 °C 35.8 °F /  2.1 °C 29.84in /  1010.4hPa NNE 3.0mph /  4.8km/h 8.0mph /  12.9km/h 92% 0.25in /  6.4mm
21:15 37.8 °F /  3.2 °C 35.7 °F /  2.1 °C 29.84in /  1010.4hPa NNE 5.0mph /  8km/h 14.0mph /  22.5km/h 92% 0.26in /  6.6mm
21:24 37.6 °F /  3.1 °C 35.5 °F /  1.9 °C 29.84in /  1010.4hPa NNE 2.0mph /  3.2km/h 11.0mph /  17.7km/h 92% 0.26in /  6.6mm
21:29 37.6 °F /  3.1 °C 35.5 °F /  1.9 °C 29.84in /  1010.4hPa Calm   7.0mph /  11.3km/h 92% 0.26in /  6.6mm
21:34 37.6 °F /  3.1 °C 35.5 °F /  1.9 °C 29.85in /  1010.7hPa NNW 1.0mph /  1.6km/h 7.0mph /  11.3km/h 92% 0.26in /  6.6mm
21:39 37.6 °F /  3.1 °C 35.5 °F /  1.9 °C 29.85in /  1010.7hPa North 1.0mph /  1.6km/h 6.0mph /  9.7km/h 92% 0.26in /  6.6mm
21:44 37.6 °F /  3.1 °C 35.5 °F /  1.9 °C 29.85in /  1010.7hPa NNE 4.0mph /  6.4km/h 12.0mph /  19.3km/h 92% 0.26in /  6.6mm
21:49 37.5 °F /  3.1 °C 35.4 °F /  1.9 °C 29.85in /  1010.7hPa Calm   12.0mph /  19.3km/h 92% 0.26in /  6.6mm
21:54 37.5 °F /  3.1 °C 35.4 °F /  1.9 °C 29.84in /  1010.4hPa NNE 3.0mph /  4.8km/h 9.0mph /  14.5km/h 92% 0.26in /  6.6mm
21:59 37.5 °F /  3.1 °C 35.4 °F /  1.9 °C 29.84in /  1010.4hPa NNW 1.0mph /  1.6km/h 9.0mph /  14.5km/h 92% 0.26in /  6.6mm
22:04 37.4 °F /  3 °C 35.3 °F /  1.8 °C 29.84in /  1010.4hPa NNE 1.0mph /  1.6km/h 9.0mph /  14.5km/h 92% 0.26in /  6.6mm
22:09 37.3 °F /  2.9 °C 35.2 °F /  1.8 °C 29.83in /  1010hPa NNE 2.0mph /  3.2km/h 9.0mph /  14.5km/h 92% 0.26in /  6.6mm
22:14 37.2 °F /  2.9 °C 35.1 °F /  1.7 °C 29.84in /  1010.4hPa NE 1.0mph /  1.6km/h 8.0mph /  12.9km/h 92% 0.26in /  6.6mm
22:19 37.1 °F /  2.8 °C 35.0 °F /  1.7 °C 29.84in /  1010.4hPa Calm   6.0mph /  9.7km/h 92% 0.26in /  6.6mm
22:24 37.1 °F /  2.8 °C 35.0 °F /  1.7 °C 29.83in /  1010hPa NNE 1.0mph /  1.6km/h 8.0mph /  12.9km/h 92% 0.26in /  6.6mm
22:29 37.0 °F /  2.8 °C 34.9 °F /  1.6 °C 29.83in /  1010hPa NNE 1.0mph /  1.6km/h 8.0mph /  12.9km/h 92% 0.26in /  6.6mm
22:35 37.0 °F /  2.8 °C 34.9 °F /  1.6 °C 29.83in /  1010hPa NE 1.0mph /  1.6km/h 12.0mph /  19.3km/h 92% 0.27in /  6.9mm
22:44 36.8 °F /  2.7 °C 35.0 °F /  1.7 °C 29.83in /  1010hPa NNE 1.0mph /  1.6km/h 8.0mph /  12.9km/h 93% 0.27in /  6.9mm
22:49 36.7 °F /  2.6 °C 34.9 °F /  1.6 °C 29.84in /  1010.4hPa Calm   9.0mph /  14.5km/h 93% 0.27in /  6.9mm
22:59 36.7 °F /  2.6 °C 34.6 °F /  1.4 °C 29.85in /  1010.7hPa Calm   7.0mph /  11.3km/h 92% 0.27in /  6.9mm
23:04 36.6 °F /  2.6 °C 34.5 °F /  1.4 °C 29.86in /  1011.1hPa Calm   5.0mph /  8km/h 92% 0.27in /  6.9mm
23:09 36.6 °F /  2.6 °C 34.5 °F /  1.4 °C 29.86in /  1011.1hPa NW 1.0mph /  1.6km/h 5.0mph /  8km/h 92% 0.28in /  7.1mm
23:14 36.5 °F /  2.5 °C 34.7 °F /  1.5 °C 29.86in /  1011.1hPa NW 2.0mph /  3.2km/h 7.0mph /  11.3km/h 93% 0.29in /  7.4mm
23:19 36.5 °F /  2.5 °C 34.7 °F /  1.5 °C 29.86in /  1011.1hPa Calm   7.0mph /  11.3km/h 93% 0.30in /  7.6mm
23:24 36.5 °F /  2.5 °C 34.7 °F /  1.5 °C 29.86in /  1011.1hPa Calm   3.0mph /  4.8km/h 93% 0.31in /  7.9mm
23:29 36.5 °F /  2.5 °C 34.7 °F /  1.5 °C 29.86in /  1011.1hPa Calm   3.0mph /  4.8km/h 93% 0.32in /  8.1mm
23:40 36.4 °F /  2.4 °C 34.6 °F /  1.4 °C 29.85in /  1010.7hPa North 1.0mph /  1.6km/h 6.0mph /  9.7km/h 93% 0.33in /  8.4mm
23:45 36.2 °F /  2.3 °C 34.4 °F /  1.3 °C 29.84in /  1010.4hPa NNE 1.0mph /  1.6km/h 6.0mph /  9.7km/h 93% 0.34in /  8.6mm
23:54 36.0 °F /  2.2 °C 34.2 °F /  1.2 °C 29.84in /  1010.4hPa Calm   4.0mph /  6.4km/h 93% 0.35in /  8.9mm
23:59 35.9 °F /  2.2 °C 34.1 °F /  1.2 °C 29.84in /  1010.4hPa NNE 1.0mph /  1.6km/h 6.0mph /  9.7km/h 93% 0.35in /  8.9mm
Westford Weather
Compliments of Weather Underground

 
 
Current Radar Loop:

Copyright © WestfordWeather.net 2007-2014. All rights reserved.